Time;durP1;ratioP1;P1;durP2;ratioP2;P2;SDS_P1;SDS_P2;PMS_P1;PMS_P2;Temp;Humidity;BMP_temperature;BMP_pressure;BME280_temperature;BME280_humidity;BME280_pressure;Samples;Min_cycle;Max_cycle;Signal;HPM_P1;HPM_P2
2023/01/18 00:01:35;;;;;;;11.95;7.75;;;4.20;68.10;;;;;;5013048;28;20134;-66
2023/01/18 00:04:00;;;;;;;12.75;8.45;;;4.20;68.20;;;;;;5012036;28;20022;-66
2023/01/18 00:06:27;;;;;;;17.00;9.25;;;4.10;68.20;;;;;;5017676;28;20057;-66
2023/01/18 00:08:54;;;;;;;12.30;8.80;;;4.10;68.40;;;;;;5020031;28;20433;-66
2023/01/18 00:11:20;;;;;;;13.50;9.32;;;4.10;68.50;;;;;;5016800;28;20030;-65
2023/01/18 00:13:46;;;;;;;13.73;8.95;;;4.10;68.60;;;;;;5015345;28;20083;-66
2023/01/18 00:16:17;;;;;;;12.45;9.00;;;4.20;68.70;;;;;;5010213;28;20026;-66
2023/01/18 00:18:48;;;;;;;15.45;9.50;;;4.10;68.80;;;;;;5005202;28;20034;-67
2023/01/18 00:21:14;;;;;;;15.60;9.25;;;4.00;68.70;;;;;;5029009;28;20073;-66
2023/01/18 00:23:39;;;;;;;16.10;10.60;;;4.00;68.80;;;;;;5029723;28;20033;-66
2023/01/18 00:26:08;;;;;;;17.80;11.02;;;4.10;68.90;;;;;;5029016;28;20044;-66
2023/01/18 00:28:34;;;;;;;21.63;11.63;;;4.00;68.80;;;;;;5031293;28;20033;-66
2023/01/18 00:31:00;;;;;;;21.55;11.75;;;4.00;68.60;;;;;;5033116;28;20120;-66
2023/01/18 00:33:25;;;;;;;18.95;12.43;;;4.00;69.10;;;;;;5033286;28;20032;-66
2023/01/18 00:35:56;;;;;;;22.40;12.77;;;4.00;68.40;;;;;;5027823;28;20054;-65
2023/01/18 00:38:21;;;;;;;21.92;13.45;;;4.00;69.30;;;;;;5030909;28;20044;-66
2023/01/18 00:40:47;;;;;;;23.23;14.48;;;3.90;68.60;;;;;;5026763;28;20021;-66
2023/01/18 00:45:57;;;;;;;23.30;14.65;;;3.80;68.90;;;;;;5028318;28;20040;-67
2023/01/18 00:48:22;;;;;;;29.50;15.32;;;4.00;68.80;;;;;;5031217;28;20038;-67
2023/01/18 00:50:48;;;;;;;26.10;14.75;;;3.80;69.00;;;;;;5028623;28;20038;-66
2023/01/18 00:53:13;;;;;;;26.35;14.43;;;3.70;68.90;;;;;;5025675;28;20041;-66
2023/01/18 00:55:39;;;;;;;25.90;14.52;;;3.70;69.00;;;;;;5033582;28;20029;-65
2023/01/18 00:58:05;;;;;;;23.70;14.38;;;3.70;69.30;;;;;;5028924;28;20489;-65
2023/01/18 01:00:31;;;;;;;27.20;15.05;;;3.70;69.50;;;;;;5023076;28;20093;-66
2023/01/18 01:02:57;;;;;;;27.10;14.98;;;3.70;70.30;;;;;;5035255;28;20014;-67
2023/01/18 01:08:15;;;;;;;26.75;15.05;;;3.70;69.70;;;;;;5028145;28;20049;-66
2023/01/18 01:10:43;;;;;;;26.13;14.85;;;3.70;69.70;;;;;;5029837;28;20061;-66
2023/01/18 01:26:49;;;;;;;20.08;13.27;;;3.80;69.70;;;;;;5029106;28;20048;-66
2023/01/18 01:29:15;;;;;;;21.25;13.27;;;3.80;69.70;;;;;;5029531;28;20053;-66
2023/01/18 01:31:41;;;;;;;23.73;14.43;;;3.90;69.70;;;;;;5035783;28;20056;-67
2023/01/18 01:34:07;;;;;;;21.52;13.80;;;3.90;69.70;;;;;;5025427;28;20014;-67
2023/01/18 01:36:33;;;;;;;18.92;12.27;;;3.90;69.60;;;;;;5032224;28;20022;-66
2023/01/18 01:38:58;;;;;;;18.00;11.90;;;3.90;69.50;;;;;;5032853;28;20032;-66
2023/01/18 01:41:33;;;;;;;17.38;10.98;;;3.90;69.30;;;;;;5032978;28;20021;-67
2023/01/18 01:44:27;;;;;;;15.15;9.73;;;3.90;69.40;;;;;;5027671;28;20045;-66
2023/01/18 01:47:16;;;;;;;8.32;6.13;;;3.90;69.40;;;;;;5022356;28;20042;-67
2023/01/18 01:49:46;;;;;;;12.95;8.43;;;3.90;69.50;;;;;;5034519;28;20491;-67
2023/01/18 01:52:22;;;;;;;14.45;9.93;;;3.90;69.10;;;;;;5029359;28;20033;-66
2023/01/18 01:55:03;;;;;;;13.70;9.50;;;3.90;69.00;;;;;;5026689;28;20025;-66
2023/01/18 01:57:35;;;;;;;13.40;9.38;;;3.90;69.10;;;;;;5029816;28;20116;-67
2023/01/18 02:00:13;;;;;;;15.27;9.07;;;4.10;68.90;;;;;;5030157;28;20048;-67
2023/01/18 02:02:41;;;;;;;13.23;8.70;;;3.90;69.00;;;;;;5026915;28;20438;-66
2023/01/18 02:05:09;;;;;;;13.82;9.45;;;3.80;68.70;;;;;;5027292;28;20109;-66
2023/01/18 02:07:35;;;;;;;13.82;9.27;;;3.80;68.70;;;;;;5027085;28;20018;-66
2023/01/18 02:10:01;;;;;;;15.85;10.30;;;3.80;68.70;;;;;;5029820;28;20564;-67
2023/01/18 02:12:29;;;;;;;14.20;9.88;;;3.70;68.70;;;;;;5027648;28;20026;-67
2023/01/18 02:14:56;;;;;;;14.63;9.80;;;3.70;68.80;;;;;;5027857;28;20124;-66
2023/01/18 02:18:12;;;;;;;15.07;10.02;;;4.00;69.10;;;;;;5028711;28;20029;-66
2023/01/18 02:20:46;;;;;;;11.82;8.18;;;3.60;69.20;;;;;;4929584;28;20134;-67
2023/01/18 02:23:51;;;;;;;12.93;8.77;;;3.70;69.00;;;;;;4961353;28;20106;-66
2023/01/18 02:26:29;;;;;;;14.38;8.77;;;3.60;69.40;;;;;;4907472;29;20504;-66
2023/01/18 02:29:31;;;;;;;13.10;8.48;;;3.60;69.10;;;;;;4902759;29;20078;-66
2023/01/18 02:32:11;;;;;;;13.15;8.98;;;3.60;69.30;;;;;;4909750;29;20037;-67
2023/01/18 02:34:56;;;;;;;13.35;8.65;;;3.60;69.10;;;;;;4899593;29;20036;-66
2023/01/18 02:37:48;;;;;;;12.10;8.25;;;3.60;69.70;;;;;;4903212;29;20045;-65
2023/01/18 02:40:31;;;;;;;13.80;9.20;;;3.60;69.60;;;;;;4904648;29;20028;-65
2023/01/18 02:48:36;;;;;;;13.57;9.18;;;3.60;70.00;;;;;;4906123;29;20082;-65
2023/01/18 02:51:01;;;;;;;14.57;9.52;;;3.60;69.40;;;;;;4925996;29;20069;-64
2023/01/18 02:53:29;;;;;;;14.48;10.10;;;3.50;69.40;;;;;;4948555;29;20036;-66
2023/01/18 02:56:31;;;;;;;14.05;9.95;;;3.50;69.50;;;;;;4941795;29;20040;-65
2023/01/18 02:59:15;;;;;;;14.30;9.38;;;3.50;70.10;;;;;;4936736;29;20074;-66
2023/01/18 03:01:46;;;;;;;11.25;7.13;;;3.50;69.80;;;;;;4940263;29;20027;-67
2023/01/18 03:04:26;;;;;;;14.93;9.98;;;3.60;69.70;;;;;;5010043;28;20038;-66
2023/01/18 03:07:04;;;;;;;18.05;10.90;;;3.60;69.70;;;;;;5017697;28;20112;-66
2023/01/18 03:09:30;;;;;;;14.65;10.68;;;3.60;69.80;;;;;;5009531;28;20022;-65
2023/01/18 03:11:59;;;;;;;17.08;10.90;;;3.60;69.60;;;;;;5011790;28;20041;-67
2023/01/18 03:14:37;;;;;;;19.33;10.98;;;3.60;69.70;;;;;;5013031;28;20030;-66
2023/01/18 03:17:22;;;;;;;17.38;10.25;;;3.60;69.70;;;;;;5014529;28;20068;-67
2023/01/18 03:20:07;;;;;;;;;;;3.60;69.90;;;;;;5018453;28;20057;-65
2023/01/18 03:25:29;;;;;;;13.48;8.55;;;3.60;69.30;;;;;;5010109;28;20045;-65
2023/01/18 03:33:46;;;;;;;11.55;8.23;;;3.60;69.60;;;;;;5010126;28;20045;-67
2023/01/18 03:36:24;;;;;;;8.95;5.75;;;3.60;69.50;;;;;;5017359;28;20026;-66
2023/01/18 03:38:55;;;;;;;13.25;7.97;;;3.60;69.50;;;;;;5005493;28;20065;-65
2023/01/18 03:41:24;;;;;;;12.25;8.20;;;3.60;69.60;;;;;;5012701;28;20019;-66
2023/01/18 03:43:53;;;;;;;10.35;7.80;;;3.50;69.50;;;;;;5013441;28;20021;-66
2023/01/18 03:46:22;;;;;;;15.00;8.50;;;3.50;69.60;;;;;;5015135;28;20082;-66
2023/01/18 03:48:48;;;;;;;13.60;8.75;;;3.60;70.40;;;;;;5017881;28;20482;-65
2023/01/18 03:51:34;;;;;;;12.43;7.50;;;3.50;69.50;;;;;;5010952;28;20026;-65
2023/01/18 03:54:07;;;;;;;11.90;7.68;;;3.50;69.50;;;;;;5010654;28;20041;-65
2023/01/18 03:56:48;;;;;;;12.80;7.95;;;3.50;69.40;;;;;;5014575;28;20122;-66
2023/01/18 03:59:14;;;;;;;13.43;8.75;;;3.50;69.60;;;;;;5012363;28;20018;-65
2023/01/18 04:01:43;;;;;;;13.35;8.40;;;3.50;69.40;;;;;;5011452;28;20037;-67
2023/01/18 04:04:08;;;;;;;11.88;8.30;;;3.80;69.70;;;;;;5015426;28;20096;-65
2023/01/18 04:06:34;;;;;;;15.48;9.00;;;3.50;69.60;;;;;;5009732;28;20026;-65
2023/01/18 04:09:00;;;;;;;17.85;9.27;;;3.50;69.80;;;;;;5011929;28;20089;-67
2023/01/18 04:11:25;;;;;;;13.95;8.90;;;3.50;69.80;;;;;;5011762;28;20078;-67
2023/01/18 04:13:51;;;;;;;11.40;8.07;;;3.50;69.80;;;;;;4997952;28;20030;-65
2023/01/18 04:16:17;;;;;;;11.05;7.85;;;3.50;69.80;;;;;;5009228;28;20022;-67
2023/01/18 04:18:42;;;;;;;11.48;7.60;;;3.50;70.00;;;;;;5010631;28;20101;-67
2023/01/18 04:21:08;;;;;;;11.23;7.95;;;3.50;69.80;;;;;;5010348;28;20054;-66
2023/01/18 04:23:33;;;;;;;11.25;8.10;;;3.50;69.70;;;;;;5016840;28;20033;-65
2023/01/18 04:25:59;;;;;;;10.65;7.70;;;3.60;70.00;;;;;;4999099;28;20030;-65
2023/01/18 04:28:25;;;;;;;15.00;8.07;;;3.60;70.00;;;;;;5012929;28;20079;-64
2023/01/18 04:30:51;;;;;;;11.40;8.50;;;3.60;70.10;;;;;;4997532;28;20034;-66
2023/01/18 04:33:19;;;;;;;11.13;8.13;;;3.60;70.10;;;;;;5017095;28;20445;-66
2023/01/18 04:35:45;;;;;;;11.48;7.47;;;3.60;70.10;;;;;;5010453;28;20030;-65
2023/01/18 04:38:11;;;;;;;12.10;8.15;;;3.60;70.10;;;;;;5013443;28;20240;-66
2023/01/18 04:40:36;;;;;;;11.93;7.85;;;3.60;70.10;;;;;;5011750;28;20129;-65
2023/01/18 04:43:03;;;;;;;11.13;7.40;;;3.60;70.10;;;;;;5013042;28;20029;-65
2023/01/18 04:45:29;;;;;;;12.60;7.85;;;3.70;70.10;;;;;;5011854;28;20057;-66
2023/01/18 04:47:55;;;;;;;14.10;8.65;;;3.70;70.10;;;;;;5011585;28;20034;-65
2023/01/18 04:50:20;;;;;;;13.32;7.78;;;3.80;70.20;;;;;;5013413;28;20033;-67
2023/01/18 04:52:46;;;;;;;12.98;8.90;;;3.80;70.30;;;;;;5005745;28;20030;-65
2023/01/18 04:55:14;;;;;;;13.13;9.07;;;3.70;70.20;;;;;;5007400;28;20371;-65
2023/01/18 04:57:41;;;;;;;11.65;8.70;;;3.70;70.10;;;;;;5006265;28;20034;-65
2023/01/18 05:00:09;;;;;;;12.85;8.40;;;3.70;70.20;;;;;;5010178;28;20026;-64
2023/01/18 05:02:34;;;;;;;12.68;8.23;;;3.80;70.20;;;;;;5004035;28;20061;-66
2023/01/18 05:05:00;;;;;;;13.98;8.80;;;4.00;70.30;;;;;;5017804;28;20022;-67
2023/01/18 05:07:29;;;;;;;13.18;8.95;;;3.80;70.20;;;;;;5013288;28;20044;-67
2023/01/18 05:09:55;;;;;;;12.45;7.93;;;3.80;70.00;;;;;;5014946;28;20030;-66
2023/01/18 05:12:21;;;;;;;12.48;8.43;;;3.80;70.10;;;;;;5008321;28;20085;-65
2023/01/18 05:14:47;;;;;;;12.13;8.13;;;3.80;70.10;;;;;;5007963;28;20057;-66
2023/01/18 05:17:13;;;;;;;11.75;8.27;;;3.90;70.30;;;;;;5015118;28;20038;-65
2023/01/18 05:19:39;;;;;;;12.80;8.52;;;4.10;70.40;;;;;;5013196;28;20046;-65
2023/01/18 05:22:05;;;;;;;11.52;8.45;;;3.90;70.20;;;;;;5013059;28;20021;-67
2023/01/18 05:24:31;;;;;;;11.00;7.93;;;3.90;70.10;;;;;;4997654;28;20029;-65
2023/01/18 05:26:57;;;;;;;11.05;7.75;;;3.90;70.00;;;;;;5009710;28;20037;-66
2023/01/18 05:29:23;;;;;;;11.85;8.15;;;3.90;70.00;;;;;;4997336;28;20714;-66
2023/01/18 05:31:50;;;;;;;12.27;8.25;;;4.00;70.10;;;;;;5004869;28;20030;-67
2023/01/18 05:34:16;;;;;;;12.63;8.10;;;4.00;70.20;;;;;;5013835;28;20084;-65
2023/01/18 05:36:42;;;;;;;11.65;7.82;;;4.00;70.10;;;;;;5013211;28;20014;-65
2023/01/18 05:39:08;;;;;;;12.60;8.32;;;4.00;70.00;;;;;;5014011;28;20037;-67
2023/01/18 05:41:33;;;;;;;11.65;7.68;;;4.00;70.00;;;;;;5003919;28;20061;-66
2023/01/18 05:43:59;;;;;;;12.82;8.70;;;4.10;70.00;;;;;;4994688;28;20030;-65
2023/01/18 05:46:25;;;;;;;11.13;7.35;;;4.10;70.10;;;;;;5006444;28;20026;-64
2023/01/18 05:48:55;;;;;;;10.95;8.00;;;4.10;70.10;;;;;;5010854;28;20089;-67
2023/01/18 05:51:21;;;;;;;13.32;8.48;;;4.10;70.30;;;;;;4990464;28;20034;-67
2023/01/18 05:53:47;;;;;;;11.85;7.85;;;4.10;70.10;;;;;;5016452;28;20044;-66
2023/01/18 05:56:12;;;;;;;18.15;8.35;;;4.20;70.00;;;;;;5013943;28;20018;-66
2023/01/18 05:58:38;;;;;;;12.90;8.63;;;4.20;70.00;;;;;;5011982;28;20042;-65
2023/01/18 06:01:04;;;;;;;11.93;8.48;;;4.10;69.90;;;;;;5016586;28;20033;-65
2023/01/18 06:03:29;;;;;;;11.55;7.70;;;4.20;70.00;;;;;;5010569;28;20018;-65
2023/01/18 06:05:56;;;;;;;10.18;7.50;;;4.20;70.00;;;;;;5017850;28;20061;-66
2023/01/18 06:08:22;;;;;;;11.50;8.55;;;4.20;70.10;;;;;;5010984;28;20021;-66
2023/01/18 06:10:58;;;;;;;13.95;8.38;;;4.20;70.20;;;;;;5010985;28;20081;-65
2023/01/18 06:13:28;;;;;;;10.90;7.25;;;4.20;70.30;;;;;;4998485;28;20030;-64
2023/01/18 06:15:55;;;;;;;12.95;7.97;;;4.20;70.10;;;;;;5011981;28;20030;-66
2023/01/18 06:18:23;;;;;;;36.53;17.02;;;4.20;70.20;;;;;;5017890;28;20037;-66
2023/01/18 06:20:48;;;;;;;16.63;10.65;;;4.20;70.20;;;;;;5008832;28;20045;-66
2023/01/18 06:23:14;;;;;;;12.82;8.73;;;4.20;70.20;;;;;;5014501;28;20447;-65
2023/01/18 06:25:40;;;;;;;13.27;8.20;;;4.30;70.30;;;;;;5017270;28;20112;-65
2023/01/18 06:28:06;;;;;;;24.92;11.70;;;4.30;70.30;;;;;;5014554;28;20134;-66
2023/01/18 06:30:33;;;;;;;12.35;8.30;;;4.30;70.20;;;;;;5018796;28;20029;-65
2023/01/18 06:33:03;;;;;;;12.07;8.10;;;4.30;70.20;;;;;;5009889;28;20181;-64
2023/01/18 06:35:29;;;;;;;10.55;7.20;;;4.30;70.30;;;;;;5015805;28;20028;-67
2023/01/18 06:37:55;;;;;;;10.75;7.75;;;4.30;70.40;;;;;;5013586;28;20037;-65
2023/01/18 06:40:21;;;;;;;49.08;17.35;;;4.30;70.50;;;;;;5015486;28;20058;-66
2023/01/18 06:42:47;;;;;;;19.27;10.45;;;4.30;70.50;;;;;;5020664;28;20033;-66
2023/01/18 06:45:15;;;;;;;15.70;8.85;;;4.30;70.50;;;;;;4988434;28;20057;-66
2023/01/18 06:47:42;;;;;;;16.35;8.88;;;4.30;70.50;;;;;;4998288;28;20066;-65
2023/01/18 06:50:09;;;;;;;14.68;9.05;;;4.30;70.50;;;;;;4994154;28;20034;-65
2023/01/18 06:52:35;;;;;;;16.10;8.52;;;4.30;70.50;;;;;;4998002;28;20022;-66
2023/01/18 06:55:00;;;;;;;12.95;8.60;;;4.30;70.60;;;;;;5008254;28;20033;-65
2023/01/18 06:57:26;;;;;;;15.35;8.48;;;4.30;70.70;;;;;;5013290;28;20040;-66
2023/01/18 06:59:52;;;;;;;15.35;9.32;;;4.30;70.70;;;;;;5013606;28;20110;-65
2023/01/18 07:02:19;;;;;;;19.75;11.45;;;4.30;70.70;;;;;;5013223;28;20064;-65
2023/01/18 07:04:45;;;;;;;16.40;9.88;;;4.30;70.80;;;;;;5006933;28;20116;-65
2023/01/18 07:07:12;;;;;;;18.50;9.63;;;4.30;70.80;;;;;;5010820;28;20022;-65
2023/01/18 07:09:38;;;;;;;16.73;9.40;;;4.30;70.80;;;;;;5000410;28;20022;-66
2023/01/18 07:12:04;;;;;;;30.13;14.25;;;4.30;70.80;;;;;;5011632;28;20084;-65
2023/01/18 07:14:30;;;;;;;127.78;52.17;;;4.30;70.80;;;;;;4998162;28;20034;-65
2023/01/18 07:16:55;;;;;;;303.55;128.85;;;4.30;70.70;;;;;;5015478;28;20053;-66
2023/01/18 07:19:21;;;;;;;109.47;54.75;;;4.30;70.70;;;;;;4924038;28;20057;-65
2023/01/18 07:21:48;;;;;;;301.42;132.30;;;4.30;70.80;;;;;;5038415;28;20248;-64
2023/01/18 07:24:13;;;;;;;80.35;42.15;;;4.30;70.80;;;;;;5035891;28;20053;-64
2023/01/18 07:26:39;;;;;;;86.47;39.55;;;4.30;70.90;;;;;;5027340;28;20038;-64
2023/01/18 07:29:05;;;;;;;26.75;16.58;;;4.40;70.80;;;;;;5019591;28;20097;-65
2023/01/18 07:31:30;;;;;;;16.90;10.70;;;4.30;70.20;;;;;;5037367;28;20030;-65
2023/01/18 07:33:56;;;;;;;10.10;6.75;;;4.30;69.60;;;;;;5039478;28;20037;-65
2023/01/18 07:36:22;;;;;;;10.15;6.38;;;4.30;69.70;;;;;;5035354;28;20025;-65
2023/01/18 07:38:48;;;;;;;7.28;5.05;;;4.20;69.60;;;;;;5038854;28;20033;-65
2023/01/18 07:41:15;;;;;;;5.40;4.38;;;4.20;69.50;;;;;;5010735;28;20500;-65
2023/01/18 07:43:42;;;;;;;36.55;16.90;;;4.10;69.60;;;;;;5026751;28;20037;-64
2023/01/18 07:46:11;;;;;;;9.77;6.57;;;4.10;69.60;;;;;;5031070;28;20021;-64
2023/01/18 07:48:36;;;;;;;10.32;6.05;;;4.10;69.90;;;;;;5034117;28;20497;-64
2023/01/18 07:51:04;;;;;;;5.50;4.03;;;4.10;70.00;;;;;;5029553;28;20033;-65
2023/01/18 07:53:32;;;;;;;4.93;4.10;;;4.10;69.90;;;;;;5031949;28;20092;-64
2023/01/18 07:55:59;;;;;;;4.07;3.17;;;4.10;69.60;;;;;;5033623;28;20026;-64
2023/01/18 07:58:25;;;;;;;3.80;3.10;;;4.10;69.50;;;;;;5032674;28;20063;-64
2023/01/18 08:00:51;;;;;;;5.18;4.13;;;4.10;69.60;;;;;;5030070;28;20112;-65
2023/01/18 08:03:17;;;;;;;4.68;3.45;;;4.10;69.80;;;;;;5027083;28;20030;-64
2023/01/18 08:05:44;;;;;;;7.30;4.43;;;4.10;69.90;;;;;;5032646;28;20018;-64
2023/01/18 08:08:11;;;;;;;4.82;4.03;;;4.10;69.80;;;;;;5033920;28;20034;-65
2023/01/18 08:10:38;;;;;;;5.25;4.25;;;4.20;69.90;;;;;;5028514;28;20108;-64
2023/01/18 08:13:05;;;;;;;4.88;4.00;;;4.20;69.60;;;;;;5032070;28;20033;-65
2023/01/18 08:15:31;;;;;;;4.72;3.33;;;4.20;69.50;;;;;;5028396;28;20059;-64
2023/01/18 08:18:01;;;;;;;3.70;3.25;;;4.20;69.50;;;;;;5033691;28;20045;-64
2023/01/18 08:20:27;;;;;;;5.70;4.25;;;4.30;69.60;;;;;;5024349;28;20054;-65
2023/01/18 08:22:55;;;;;;;4.10;3.25;;;4.30;69.60;;;;;;5033080;28;20033;-65
2023/01/18 08:25:22;;;;;;;3.55;3.22;;;4.30;69.60;;;;;;5033852;28;20017;-64
2023/01/18 08:27:47;;;;;;;4.03;3.25;;;4.30;69.50;;;;;;5031969;28;20033;-64
2023/01/18 08:30:13;;;;;;;3.50;2.85;;;4.40;69.60;;;;;;5031687;28;20026;-65
2023/01/18 08:32:39;;;;;;;4.20;3.28;;;4.40;69.50;;;;;;5028815;28;20122;-66
2023/01/18 08:35:06;;;;;;;3.42;2.75;;;4.50;69.40;;;;;;5035344;28;20557;-66
2023/01/18 08:37:31;;;;;;;3.00;2.60;;;4.50;69.20;;;;;;5022751;28;20041;-66
2023/01/18 08:39:57;;;;;;;2.92;2.45;;;4.50;68.90;;;;;;5024490;28;20030;-66
2023/01/18 08:42:23;;;;;;;3.78;2.97;;;4.50;68.70;;;;;;5031769;28;20022;-65
2023/01/18 08:44:48;;;;;;;3.53;2.63;;;4.50;68.80;;;;;;5033070;28;20025;-66
2023/01/18 08:47:14;;;;;;;2.83;2.42;;;4.50;68.70;;;;;;5026285;28;20045;-65
2023/01/18 08:49:40;;;;;;;3.08;2.63;;;4.40;68.70;;;;;;5032893;28;20053;-65
2023/01/18 08:52:06;;;;;;;4.15;2.90;;;4.40;68.70;;;;;;5034322;28;20024;-65
2023/01/18 08:54:32;;;;;;;5.13;2.25;;;4.40;68.50;;;;;;5028695;28;20030;-66
2023/01/18 08:56:58;;;;;;;3.55;2.92;;;4.40;68.60;;;;;;5013973;28;20029;-65
2023/01/18 08:59:23;;;;;;;3.63;2.90;;;4.30;68.70;;;;;;5035941;28;20444;-66
2023/01/18 09:01:49;;;;;;;4.65;2.65;;;4.50;68.90;;;;;;5028618;28;20120;-65
2023/01/18 09:04:14;;;;;;;2.78;2.53;;;4.30;68.80;;;;;;5024923;28;20036;-66
2023/01/18 09:06:40;;;;;;;2.65;2.42;;;4.30;68.60;;;;;;5029427;28;20032;-66
2023/01/18 09:09:06;;;;;;;3.83;2.45;;;4.30;68.60;;;;;;5033848;28;20029;-65
2023/01/18 09:11:31;;;;;;;3.30;2.05;;;4.30;68.50;;;;;;5031339;28;20029;-66
2023/01/18 09:13:58;;;;;;;3.92;2.30;;;4.30;68.30;;;;;;5024859;28;20032;-65
2023/01/18 09:16:24;;;;;;;4.47;3.00;;;4.30;68.00;;;;;;5034158;28;20043;-65
2023/01/18 09:18:50;;;;;;;3.00;2.20;;;4.30;67.80;;;;;;4953323;28;20037;-65
2023/01/18 09:21:19;;;;;;;5.18;2.60;;;4.20;67.60;;;;;;5033390;28;20044;-65
2023/01/18 09:23:47;;;;;;;3.20;2.20;;;4.20;67.70;;;;;;5031165;28;20033;-64
2023/01/18 09:26:19;;;;;;;4.00;2.38;;;4.20;68.00;;;;;;5020479;28;20021;-65
2023/01/18 09:28:51;;;;;;;2.38;2.17;;;4.20;68.10;;;;;;5025713;28;20030;-65
2023/01/18 09:31:17;;;;;;;3.30;2.20;;;4.30;68.20;;;;;;5033548;28;20026;-65
2023/01/18 09:33:43;;;;;;;17.33;4.90;;;4.30;68.20;;;;;;5026871;28;20094;-65
2023/01/18 09:36:11;;;;;;;6.25;2.85;;;4.40;68.30;;;;;;5032912;28;20041;-64
2023/01/18 09:38:39;;;;;;;3.28;2.40;;;4.40;68.30;;;;;;5042666;28;20033;-65
2023/01/18 09:41:17;;;;;;;3.50;2.42;;;4.50;68.00;;;;;;5031796;28;20499;-65
2023/01/18 09:43:52;;;;;;;2.47;2.10;;;4.50;67.40;;;;;;5032300;28;20037;-66
2023/01/18 09:46:18;;;;;;;;;;;4.50;67.30;;;;;;5010722;28;20032;-65
2023/01/18 09:48:48;;;;;;;4.53;2.65;;;4.50;67.20;;;;;;5036292;28;19944;-66
2023/01/18 09:51:57;;;;;;;2.97;2.20;;;4.40;66.90;;;;;;5034972;28;20485;-65
2023/01/18 09:54:51;;;;;;;2.85;1.85;;;4.40;67.00;;;;;;5001253;28;20037;-65
2023/01/18 09:57:36;;;;;;;2.08;1.88;;;4.40;67.30;;;;;;5032170;28;20115;-65
2023/01/18 10:00:12;;;;;;;3.25;2.40;;;4.40;67.50;;;;;;5026074;28;20021;-65
2023/01/18 10:02:38;;;;;;;3.20;2.03;;;4.40;67.50;;;;;;5035647;28;20367;-65
2023/01/18 10:05:20;;;;;;;3.70;2.13;;;4.40;67.00;;;;;;5034269;28;20030;-65
2023/01/18 10:08:15;;;;;;;2.70;2.30;;;4.40;67.20;;;;;;5023234;28;20045;-65
2023/01/18 10:10:48;;;;;;;;;;;4.40;66.90;;;;;;5013084;28;20025;-65
2023/01/18 10:13:49;;;;;;;22.38;6.65;;;4.40;67.10;;;;;;5029620;28;19909;-64
2023/01/18 10:16:15;;;;;;;4.80;2.80;;;4.50;67.30;;;;;;5033645;28;20028;-66
2023/01/18 10:18:47;;;;;;;3.72;2.50;;;4.50;67.50;;;;;;5033059;28;20034;-64
2023/01/18 10:21:35;;;;;;;3.60;2.10;;;4.60;67.30;;;;;;5031246;28;20041;-64
2023/01/18 10:24:12;;;;;;;4.78;2.30;;;4.70;67.30;;;;;;5037311;28;20045;-64
2023/01/18 10:26:39;;;;;;;2.40;2.20;;;4.80;67.90;;;;;;5034325;28;20034;-65
2023/01/18 10:29:29;;;;;;;3.25;2.55;;;5.00;68.10;;;;;;5033305;28;20453;-64
2023/01/18 10:32:03;;;;;;;2.30;2.10;;;5.20;67.70;;;;;;5031509;28;20022;-65
2023/01/18 10:34:37;;;;;;;2.35;2.15;;;5.30;66.90;;;;;;5033486;28;20025;-65
2023/01/18 10:37:13;;;;;;;3.35;2.45;;;5.40;66.50;;;;;;5031946;28;20029;-65
2023/01/18 10:39:44;;;;;;;2.28;2.08;;;5.40;65.40;;;;;;5030725;28;20033;-65
2023/01/18 10:42:29;;;;;;;2.40;2.20;;;5.40;65.60;;;;;;5029783;28;20101;-66
2023/01/18 10:44:56;;;;;;;4.03;2.45;;;5.30;65.00;;;;;;5035477;28;20082;-65
2023/01/18 10:47:21;;;;;;;6.20;3.58;;;5.20;64.90;;;;;;5036510;28;20031;-65
2023/01/18 10:49:49;;;;;;;4.93;3.47;;;5.10;65.30;;;;;;5035937;28;20049;-65
2023/01/18 10:52:20;;;;;;;3.67;2.50;;;5.10;65.60;;;;;;5028069;28;20046;-65
2023/01/18 10:54:50;;;;;;;3.10;2.53;;;5.00;65.70;;;;;;5030578;28;20062;-66
2023/01/18 10:57:30;;;;;;;3.80;2.72;;;5.00;65.80;;;;;;5035324;28;20121;-65
2023/01/18 10:59:58;;;;;;;3.35;2.88;;;4.90;66.00;;;;;;5029102;28;20029;-65
2023/01/18 11:02:36;;;;;;;6.05;3.25;;;4.90;66.00;;;;;;5031243;28;20115;-65
2023/01/18 11:05:23;;;;;;;4.25;3.20;;;4.80;65.70;;;;;;5031630;28;20041;-65
2023/01/18 11:08:11;;;;;;;10.25;7.68;;;4.80;65.90;;;;;;5037151;28;20108;-65
2023/01/18 11:10:38;;;;;;;4.13;3.72;;;4.70;66.20;;;;;;5032874;28;20026;-66
2023/01/18 11:13:28;;;;;;;4.50;3.92;;;4.70;66.40;;;;;;5033095;28;20021;-65
2023/01/18 11:16:09;;;;;;;4.25;3.25;;;4.70;66.40;;;;;;5017041;28;20029;-65
2023/01/18 11:18:34;;;;;;;4.38;3.15;;;4.70;66.40;;;;;;5029726;28;20037;-64
2023/01/18 11:21:01;;;;;;;4.32;2.75;;;4.70;66.40;;;;;;5026097;28;20105;-65
2023/01/18 11:23:29;;;;;;;4.07;3.30;;;4.70;66.20;;;;;;5018362;28;20056;-65
2023/01/18 11:26:04;;;;;;;20.20;10.73;;;4.70;67.00;;;;;;5027913;28;20033;-65
2023/01/18 11:28:45;;;;;;;5.85;3.80;;;4.70;66.40;;;;;;5034503;28;20631;-65
2023/01/18 11:31:12;;;;;;;4.22;3.13;;;4.70;66.40;;;;;;5035441;28;20057;-65
2023/01/18 11:33:48;;;;;;;3.97;3.50;;;4.70;66.80;;;;;;5027343;28;20116;-64
2023/01/18 11:36:15;;;;;;;4.07;3.40;;;4.70;66.80;;;;;;5033544;28;20055;-65
2023/01/18 11:38:41;;;;;;;4.45;2.97;;;4.80;66.50;;;;;;5026886;28;20037;-65
2023/01/18 11:41:13;;;;;;;4.68;3.28;;;4.80;66.40;;;;;;5032912;28;20036;-65
2023/01/18 11:43:48;;;;;;;6.03;3.22;;;4.80;67.30;;;;;;5032145;28;20013;-64
2023/01/18 11:46:28;;;;;;;5.28;3.83;;;4.90;66.70;;;;;;5031550;28;20030;-65
2023/01/18 11:49:10;;;;;;;9.63;4.85;;;5.00;66.70;;;;;;5033555;28;20093;-65
2023/01/18 11:51:55;;;;;;;34.15;16.33;;;5.00;66.80;;;;;;5028160;28;20386;-65
2023/01/18 11:54:26;;;;;;;;;;;5.10;66.60;;;;;;5030129;28;20029;-65
2023/01/18 11:56:55;;;;;;;5.82;3.85;;;5.10;66.00;;;;;;5023380;28;19913;-65
2023/01/18 11:59:26;;;;;;;4.50;3.33;;;5.10;65.70;;;;;;5028896;28;20021;-65
2023/01/18 12:02:20;;;;;;;4.82;2.90;;;5.10;65.70;;;;;;5035641;28;20045;-65
2023/01/18 12:05:04;;;;;;;4.03;2.75;;;5.10;65.40;;;;;;5024385;28;20029;-65
2023/01/18 12:08:07;;;;;;;2.90;2.47;;;5.10;65.30;;;;;;5036521;28;20030;-65
2023/01/18 12:11:07;;;;;;;3.13;2.67;;;5.00;65.30;;;;;;5034859;28;20029;-64
2023/01/18 12:13:53;;;;;;;2.92;2.60;;;4.90;65.20;;;;;;5031768;28;20044;-65
2023/01/18 12:16:51;;;;;;;5.03;3.13;;;4.80;65.30;;;;;;5032309;28;20025;-65
2023/01/18 12:19:43;;;;;;;3.60;3.10;;;4.70;65.40;;;;;;4901440;28;20077;-65
2023/01/18 12:22:29;;;;;;;3.75;2.72;;;4.60;65.60;;;;;;4987720;28;20030;-65
2023/01/18 12:25:23;;;;;;;4.43;3.33;;;4.50;66.00;;;;;;4989013;28;20042;-64
2023/01/18 12:28:07;;;;;;;4.85;2.83;;;4.40;66.10;;;;;;4988893;28;20042;-66
2023/01/18 12:30:47;;;;;;;5.45;3.17;;;4.40;66.10;;;;;;4993699;28;20101;-66
2023/01/18 12:33:37;;;;;;;3.00;2.60;;;4.30;66.30;;;;;;4990221;28;20046;-65
2023/01/18 12:36:35;;;;;;;3.33;2.88;;;4.30;66.60;;;;;;4992066;28;20026;-65
2023/01/18 12:39:12;;;;;;;3.10;2.67;;;4.30;66.60;;;;;;4989795;28;20118;-65
2023/01/18 12:42:15;;;;;;;4.20;2.83;;;4.30;66.60;;;;;;4972872;28;20511;-65
2023/01/18 12:45:02;;;;;;;4.75;2.95;;;4.20;66.50;;;;;;4991504;28;20034;-66
2023/01/18 12:47:33;;;;;;;3.10;2.50;;;4.20;66.60;;;;;;4986873;28;20034;-65
2023/01/18 12:50:05;;;;;;;4.82;2.80;;;4.20;66.50;;;;;;4989875;28;20042;-65
2023/01/18 12:52:41;;;;;;;6.80;4.50;;;4.20;66.70;;;;;;4987911;28;20030;-66
2023/01/18 12:55:15;;;;;;;4.60;3.17;;;4.20;67.00;;;;;;4992467;28;20098;-65
2023/01/18 12:57:41;;;;;;;3.50;3.20;;;4.20;67.00;;;;;;5031878;28;20077;-65
2023/01/18 13:00:21;;;;;;;4.25;3.33;;;4.20;67.00;;;;;;5024190;28;20036;-65
2023/01/18 13:02:51;;;;;;;3.42;2.72;;;4.20;66.90;;;;;;5029884;28;20109;-66
2023/01/18 13:05:35;;;;;;;2.95;2.67;;;4.20;66.90;;;;;;5015035;28;20040;-65
2023/01/18 13:08:07;;;;;;;3.05;2.05;;;4.20;66.70;;;;;;5035663;28;20026;-65
2023/01/18 13:10:35;;;;;;;3.60;2.83;;;4.20;66.90;;;;;;5036775;28;20017;-65
2023/01/18 13:13:03;;;;;;;5.55;3.22;;;4.30;67.00;;;;;;5032115;28;20033;-66
2023/01/18 13:15:55;;;;;;;4.20;2.83;;;4.20;66.90;;;;;;5023987;28;20026;-66
2023/01/18 13:18:25;;;;;;;3.65;2.92;;;4.30;66.90;;;;;;5032497;28;20072;-66
2023/01/18 13:20:51;;;;;;;2.42;2.10;;;4.30;66.80;;;;;;5028274;28;20097;-66
2023/01/18 13:23:52;;;;;;;3.53;2.85;;;4.30;66.90;;;;;;5025810;28;20025;-65
2023/01/18 13:26:29;;;;;;;3.20;2.78;;;4.30;66.60;;;;;;4999342;28;20030;-66
2023/01/18 13:29:10;;;;;;;4.10;2.92;;;4.20;66.40;;;;;;5001992;28;20030;-64
2023/01/18 13:31:37;;;;;;;3.80;3.05;;;4.20;67.30;;;;;;5000217;28;20038;-65
2023/01/18 13:34:03;;;;;;;3.65;2.78;;;4.20;66.40;;;;;;4998035;28;20043;-65
2023/01/18 13:36:43;;;;;;;5.18;3.83;;;4.10;66.30;;;;;;4998308;28;20026;-65
2023/01/18 13:39:14;;;;;;;6.68;3.53;;;4.00;66.40;;;;;;5002724;28;20038;-65
2023/01/18 13:42:02;;;;;;;6.90;4.00;;;4.00;66.40;;;;;;5002027;28;20064;-65
2023/01/18 13:45:15;;;;;;;4.95;3.97;;;3.90;66.70;;;;;;4999094;28;20022;-65
2023/01/18 13:47:47;;;;;;;6.25;3.63;;;3.90;67.00;;;;;;4981888;28;20050;-65